createdAt,value
2018-11-01T00:02:48.480Z,3.52
2018-11-01T00:07:42.929Z,2.70
2018-11-01T00:12:39.346Z,2.83
2018-11-01T00:17:33.160Z,2.62
2018-11-01T00:22:26.557Z,2.90
2018-11-01T00:27:20.087Z,3.20
2018-11-01T00:32:14.692Z,3.25
2018-11-01T00:37:08.021Z,3.33
2018-11-01T00:42:01.401Z,3.33
2018-11-01T00:46:54.703Z,3.67
2018-11-01T00:51:48.035Z,3.52
2018-11-01T00:56:41.501Z,3.30
2018-11-01T01:01:35.010Z,3.47
2018-11-01T01:06:28.460Z,3.58
2018-11-01T01:11:21.754Z,2.70
2018-11-01T01:16:15.853Z,3.15
2018-11-01T01:21:09.159Z,3.27
2018-11-01T01:26:02.666Z,2.98
2018-11-01T01:30:56.021Z,3.33
2018-11-01T01:35:49.444Z,2.90
2018-11-01T01:40:42.881Z,3.25
2018-11-01T01:45:36.263Z,3.12
2018-11-01T01:50:29.752Z,2.80
2018-11-01T01:55:23.171Z,2.95
2018-11-01T02:00:17.679Z,3.15
2018-11-01T02:05:11.450Z,3.22
2018-11-01T02:10:06.098Z,2.92
2018-11-01T02:14:59.505Z,2.92
2018-11-01T02:19:52.884Z,3.00
2018-11-01T02:24:46.263Z,2.98
2018-11-01T02:29:39.739Z,2.92
2018-11-01T02:34:33.113Z,3.15
2018-11-01T02:39:26.485Z,2.50
2018-11-01T02:44:19.777Z,2.95
2018-11-01T02:49:13.238Z,2.92
2018-11-01T02:54:06.755Z,3.10
2018-11-01T02:59:00.075Z,3.22
2018-11-01T03:03:53.380Z,2.50
2018-11-01T03:08:46.774Z,2.50
2018-11-01T03:13:40.824Z,2.93
2018-11-01T03:18:34.224Z,2.62
2018-11-01T03:23:28.573Z,2.98
2018-11-01T03:28:21.875Z,2.98
2018-11-01T03:33:15.849Z,2.70
2018-11-01T03:38:09.308Z,3.17
2018-11-01T03:43:03.023Z,2.60
2018-11-01T03:47:57.097Z,2.87
2018-11-01T03:52:50.432Z,2.60
2018-11-01T03:57:43.781Z,2.45
2018-11-01T04:02:37.143Z,2.60
2018-11-01T04:07:30.451Z,3.08
2018-11-01T04:12:23.867Z,2.83
2018-11-01T04:17:17.207Z,2.67
2018-11-01T04:22:10.586Z,2.37
2018-11-01T04:27:04.443Z,2.37
2018-11-01T04:31:57.689Z,2.90
2018-11-01T04:36:51.030Z,2.50
2018-11-01T04:41:44.361Z,2.37
2018-11-01T04:46:37.714Z,2.30
2018-11-01T04:51:31.336Z,2.70
2018-11-01T04:56:24.907Z,3.75
2018-11-01T05:01:22.669Z,2.72
2018-11-01T05:06:16.753Z,2.60
2018-11-01T05:11:10.071Z,2.50
2018-11-01T05:16:03.371Z,2.70
2018-11-01T05:20:56.690Z,2.75
2018-11-01T05:25:50.705Z,2.52
2018-11-01T05:30:44.034Z,2.80
2018-11-01T05:35:37.371Z,2.77
2018-11-01T05:40:30.746Z,2.27
2018-11-01T05:45:24.151Z,2.55
2018-11-01T05:50:17.470Z,2.60
2018-11-01T05:55:10.791Z,2.45
2018-11-01T06:00:07.738Z,2.62
2018-11-01T06:05:01.190Z,2.58
2018-11-01T06:09:54.533Z,2.30
2018-11-01T06:14:47.843Z,2.62
2018-11-01T06:19:41.194Z,2.45
2018-11-01T06:24:34.768Z,2.58
2018-11-01T06:29:28.280Z,2.37
2018-11-01T06:34:54.894Z,2.50
2018-11-01T06:39:48.235Z,2.55
2018-11-01T06:44:41.694Z,2.33
2018-11-01T06:49:34.962Z,2.65
2018-11-01T06:54:28.306Z,2.83
2018-11-01T06:59:21.917Z,2.22
2018-11-01T07:04:15.731Z,2.77
2018-11-01T07:09:11.577Z,2.50
2018-11-01T07:14:05.606Z,2.37
2018-11-01T07:18:58.913Z,3.17
2018-11-01T07:23:52.234Z,3.02
2018-11-01T07:28:45.519Z,2.80
2018-11-01T07:33:38.928Z,3.08
2018-11-01T07:38:32.277Z,2.52
2018-11-01T07:43:26.521Z,2.40
2018-11-01T07:48:19.801Z,2.60
2018-11-01T07:53:13.368Z,2.67
2018-11-01T07:58:06.909Z,2.77
2018-11-01T08:03:00.521Z,2.45
2018-11-01T08:07:53.861Z,2.75
2018-11-01T08:12:47.831Z,2.83
2018-11-01T08:17:41.699Z,2.83
2018-11-01T08:22:35.037Z,2.47
2018-11-01T08:27:28.447Z,2.80
2018-11-01T08:32:21.791Z,2.80
2018-11-01T08:37:15.143Z,2.85
2018-11-01T08:42:09.215Z,2.92
2018-11-01T08:47:02.594Z,2.70
2018-11-01T08:51:55.946Z,2.62
2018-11-01T08:56:49.427Z,2.98
2018-11-01T09:01:42.752Z,2.80
2018-11-01T09:06:36.177Z,2.90
2018-11-01T09:11:29.565Z,2.92
2018-11-01T09:16:22.921Z,2.80
2018-11-01T09:21:16.324Z,2.98
2018-11-01T09:26:09.663Z,2.55
2018-11-01T09:31:03.265Z,2.50
2018-11-01T09:35:56.688Z,2.95
2018-11-01T09:40:50.056Z,3.10
2018-11-01T09:45:43.456Z,2.83
2018-11-01T09:50:36.850Z,3.05
2018-11-01T09:55:30.323Z,2.77
2018-11-01T10:00:23.645Z,2.80
2018-11-01T10:05:17.024Z,3.30
2018-11-01T10:10:12.040Z,3.02
2018-11-01T10:15:06.225Z,2.85
2018-11-01T10:25:01.344Z,3.17
2018-11-01T10:29:54.828Z,3.22
2018-11-01T10:34:48.219Z,3.60
2018-11-01T10:39:41.697Z,3.72
2018-11-01T10:44:35.609Z,3.58
2018-11-01T10:49:29.519Z,3.50
2018-11-01T10:54:23.495Z,3.40
2018-11-01T10:59:17.631Z,3.65
2018-11-01T11:04:11.470Z,4.08
2018-11-01T11:09:07.795Z,3.70
2018-11-01T11:14:01.150Z,3.50
2018-11-01T11:18:54.469Z,3.98
2018-11-01T11:23:48.156Z,4.17
2018-11-01T11:28:41.677Z,3.80
2018-11-01T11:33:34.993Z,3.83
2018-11-01T11:38:28.252Z,4.58
2018-11-01T11:43:21.575Z,4.00
2018-11-01T11:48:14.871Z,4.50
2018-11-01T11:53:08.292Z,3.92
2018-11-01T11:58:01.653Z,4.47
2018-11-01T12:02:55.697Z,4.15
2018-11-01T12:07:49.380Z,4.30
2018-11-01T12:12:43.260Z,4.30
2018-11-01T12:17:37.501Z,4.50
2018-11-01T12:22:30.840Z,4.20
2018-11-01T12:27:29.322Z,4.67
2018-11-01T12:32:23.278Z,4.97
2018-11-01T12:37:19.857Z,5.20
2018-11-01T12:42:20.005Z,4.47
2018-11-01T12:47:13.367Z,4.25
2018-11-01T12:52:07.431Z,4.65
2018-11-01T12:57:00.819Z,4.37
2018-11-01T13:01:54.746Z,4.75
2018-11-01T13:06:50.932Z,5.22
2018-11-01T13:11:44.422Z,4.58
2018-11-01T13:16:38.314Z,4.47
2018-11-01T13:21:31.801Z,5.00
2018-11-01T13:26:25.901Z,4.78
2018-11-01T13:31:31.688Z,5.37
2018-11-01T13:36:25.582Z,4.78
2018-11-01T13:41:20.833Z,4.50
2018-11-01T13:46:15.562Z,5.15
2018-11-01T13:51:09.012Z,4.97
2018-11-01T13:56:02.298Z,5.03
2018-11-01T14:00:55.649Z,4.78
2018-11-01T14:05:49.223Z,5.17
2018-11-01T14:10:42.602Z,5.10
2018-11-01T14:15:36.799Z,5.40
2018-11-01T14:20:30.191Z,4.60
2018-11-01T14:25:23.666Z,4.80
2018-11-01T14:30:17.036Z,5.17
2018-11-01T14:35:11.570Z,4.92
2018-11-01T14:40:07.378Z,4.95
2018-11-01T14:45:00.703Z,5.47
2018-11-01T14:49:54.098Z,5.65
2018-11-01T14:54:48.777Z,5.05
2018-11-01T14:59:42.358Z,6.33
2018-11-01T15:04:34.775Z,5.95
2018-11-01T15:09:28.388Z,5.65
2018-11-01T15:14:21.929Z,5.40
2018-11-01T15:19:15.393Z,6.37
2018-11-01T15:24:09.570Z,6.05
2018-11-01T15:29:03.261Z,6.10
2018-11-01T15:33:57.942Z,5.42
2018-11-01T15:38:51.326Z,5.95
2018-11-01T15:43:44.698Z,5.83
2018-11-01T15:48:38.623Z,6.37
2018-11-01T15:53:32.477Z,5.80
2018-11-01T15:58:25.845Z,6.03
2018-11-01T16:03:19.514Z,5.10
2018-11-01T16:08:12.857Z,5.80
2018-11-01T16:13:06.205Z,5.58
2018-11-01T16:18:00.190Z,7.65
2018-11-01T16:22:53.572Z,5.65
2018-11-01T16:27:48.022Z,5.90
2018-11-01T16:32:41.452Z,5.65
2018-11-01T16:37:34.907Z,6.00
2018-11-01T16:42:28.460Z,5.85
2018-11-01T16:47:21.882Z,5.40
2018-11-01T16:52:15.340Z,5.35
2018-11-01T16:57:08.781Z,5.95
2018-11-01T17:02:02.541Z,6.37
2018-11-01T17:06:55.972Z,5.65
2018-11-01T17:11:49.353Z,5.37
2018-11-01T17:16:42.704Z,5.50
2018-11-01T17:21:36.219Z,5.65
2018-11-01T17:26:29.606Z,6.37
2018-11-01T17:31:22.947Z,6.28
2018-11-01T17:36:16.365Z,6.42
2018-11-01T17:41:09.892Z,6.15
2018-11-01T17:46:03.598Z,5.87
2018-11-01T17:50:56.909Z,5.90
2018-11-01T17:55:50.290Z,6.05
2018-11-01T18:00:43.847Z,6.20
2018-11-01T18:05:37.169Z,5.87
2018-11-01T18:10:30.519Z,6.03
2018-11-01T18:15:23.867Z,6.75
2018-11-01T18:20:17.298Z,6.33
2018-11-01T18:25:13.696Z,6.15
2018-11-01T18:30:11.218Z,7.40
2018-11-01T18:35:05.682Z,6.50
2018-11-01T18:39:59.140Z,6.20
2018-11-01T18:44:53.432Z,6.62
2018-11-01T18:49:46.810Z,6.50
2018-11-01T18:54:40.729Z,7.08
2018-11-01T18:59:34.187Z,6.45
2018-11-01T19:04:27.589Z,5.85
2018-11-01T19:09:22.628Z,6.08
2018-11-01T19:14:16.419Z,5.40
2018-11-01T19:19:10.326Z,6.60
2018-11-01T19:24:04.027Z,5.70
2018-11-01T19:28:57.670Z,5.95
2018-11-01T19:33:51.633Z,5.58
2018-11-01T19:38:44.821Z,5.97
2018-11-01T19:43:38.129Z,5.33
2018-11-01T19:48:31.446Z,5.62
2018-11-01T19:53:24.819Z,5.83
2018-11-01T19:58:18.252Z,5.55
2018-11-01T20:03:11.650Z,5.85
2018-11-01T20:08:05.475Z,6.05
2018-11-01T20:12:58.822Z,6.08
2018-11-01T20:17:52.178Z,6.00
2018-11-01T20:22:45.818Z,6.00
2018-11-01T20:27:39.871Z,6.58
2018-11-01T20:32:33.333Z,5.95
2018-11-01T20:37:26.692Z,6.20
2018-11-01T20:42:20.150Z,6.33
2018-11-01T20:47:13.805Z,6.60
2018-11-01T20:52:07.498Z,7.20
2018-11-01T20:57:02.000Z,6.40
2018-11-01T21:01:55.653Z,7.10
2018-11-01T21:06:49.088Z,7.75
2018-11-01T21:11:42.746Z,7.72
2018-11-01T21:16:36.387Z,8.08
2018-11-01T21:21:29.709Z,8.70
2018-11-01T21:26:24.082Z,8.18
2018-11-01T21:31:17.484Z,8.78
2018-11-01T21:36:10.928Z,8.35
2018-11-01T21:41:04.538Z,9.50
2018-11-01T21:45:57.864Z,6.95
2018-11-01T21:50:51.425Z,7.55
2018-11-01T21:55:44.808Z,7.90
2018-11-01T22:00:38.114Z,8.15
2018-11-01T22:05:31.468Z,8.10
2018-11-01T22:10:25.760Z,8.00
2018-11-01T22:15:19.204Z,6.87
2018-11-01T22:20:12.626Z,6.17
2018-11-01T22:25:06.940Z,7.25
2018-11-01T22:30:00.349Z,6.22
2018-11-01T22:34:53.785Z,7.10
2018-11-01T22:39:47.080Z,6.70
2018-11-01T22:44:40.447Z,6.40
2018-11-01T22:49:33.772Z,7.42
2018-11-01T22:54:27.092Z,5.95
2018-11-01T22:59:20.510Z,5.75
2018-11-01T23:04:13.809Z,5.70
2018-11-01T23:09:08.827Z,5.97
2018-11-01T23:14:02.111Z,5.90
2018-11-01T23:18:55.438Z,5.37
2018-11-01T23:23:48.800Z,5.40
2018-11-01T23:28:42.091Z,5.17
2018-11-01T23:33:35.500Z,5.97
2018-11-01T23:38:34.425Z,5.10
2018-11-01T23:43:33.515Z,5.10
2018-11-01T23:48:26.394Z,5.10
2018-11-01T23:53:29.896Z,3.97
2018-11-01T23:58:23.708Z,2.60
